createdAt,value
2023-03-20T00:02:00.478Z,8.20
2023-03-20T00:04:27.488Z,8.30
2023-03-20T00:06:54.309Z,8.10
2023-03-20T00:09:21.147Z,8.10
2023-03-20T00:11:50.441Z,8.30
2023-03-20T00:14:20.020Z,8.30
2023-03-20T00:16:49.068Z,8.30
2023-03-20T00:19:23.468Z,8.40
2023-03-20T00:21:51.605Z,8.60
2023-03-20T00:26:47.390Z,8.40
2023-03-20T00:29:31.253Z,8.30
2023-03-20T00:34:29.685Z,8.20
2023-03-20T00:41:57.965Z,8.00
2023-03-20T00:44:26.483Z,7.90
2023-03-20T00:47:00.614Z,8.00
2023-03-20T00:49:33.169Z,7.30
2023-03-20T00:52:01.466Z,7.30
2023-03-20T00:54:29.316Z,6.80
2023-03-20T00:57:01.140Z,7.20
2023-03-20T00:59:34.255Z,7.00
2023-03-20T01:02:02.754Z,6.70
2023-03-20T01:04:36.346Z,6.90
2023-03-20T01:09:30.667Z,7.20
2023-03-20T01:11:59.845Z,6.90
2023-03-20T01:16:54.554Z,6.90
2023-03-20T01:21:49.259Z,6.80
2023-03-20T01:26:45.984Z,6.70
2023-03-20T01:29:30.587Z,6.70
2023-03-20T01:31:57.430Z,6.40
2023-03-20T01:34:24.326Z,6.60
2023-03-20T01:36:54.268Z,7.20
2023-03-20T01:39:24.407Z,7.10
2023-03-20T01:41:53.031Z,7.00
2023-03-20T01:44:27.335Z,7.00
2023-03-20T01:46:55.474Z,7.00
2023-03-20T01:51:51.588Z,6.60
2023-03-20T01:54:29.570Z,7.00
2023-03-20T01:57:11.344Z,6.90
2023-03-20T01:59:51.893Z,6.90
2023-03-20T02:02:25.083Z,6.90
2023-03-20T02:04:55.944Z,6.90
2023-03-20T02:07:24.365Z,6.90
2023-03-20T02:09:51.901Z,6.90
2023-03-20T02:12:20.921Z,6.90
2023-03-20T02:14:48.439Z,6.50
2023-03-20T02:17:15.726Z,6.60
2023-03-20T02:20:10.659Z,6.70
2023-03-20T02:23:02.120Z,6.80
2023-03-20T02:25:59.632Z,7.30
2023-03-20T02:28:41.345Z,6.70
2023-03-20T02:31:23.073Z,7.00
2023-03-20T02:34:05.186Z,7.00
2023-03-20T02:37:16.793Z,7.30
2023-03-20T02:40:05.878Z,6.80
2023-03-20T02:42:47.685Z,6.90
2023-03-20T02:48:04.373Z,7.30
2023-03-20T02:50:48.951Z,7.40
2023-03-20T02:53:39.979Z,7.20
2023-03-20T02:58:46.684Z,7.30
2023-03-20T03:01:41.687Z,6.80
2023-03-20T03:04:17.753Z,6.50
2023-03-20T03:06:49.289Z,6.30
2023-03-20T03:09:38.335Z,6.20
2023-03-20T03:12:21.430Z,6.40
2023-03-20T03:15:04.175Z,6.00
2023-03-20T03:17:36.504Z,6.40
2023-03-20T03:20:09.734Z,6.00
2023-03-20T03:22:36.580Z,6.00
2023-03-20T03:25:03.719Z,6.10
2023-03-20T03:27:47.809Z,6.00
2023-03-20T03:33:17.461Z,6.00
2023-03-20T03:35:45.594Z,5.60
2023-03-20T03:38:21.362Z,5.70
2023-03-20T03:41:17.518Z,6.20
2023-03-20T03:44:07.380Z,5.50
2023-03-20T03:49:05.497Z,5.80
2023-03-20T03:51:35.530Z,5.20
2023-03-20T03:54:13.140Z,5.80
2023-03-20T03:56:42.892Z,5.40
2023-03-20T03:59:18.174Z,5.60
2023-03-20T04:01:47.723Z,5.90
2023-03-20T04:04:16.871Z,6.20
2023-03-20T04:06:43.784Z,5.80
2023-03-20T04:09:10.735Z,5.70
2023-03-20T04:11:37.732Z,6.10
2023-03-20T04:14:04.573Z,6.00
2023-03-20T04:16:31.483Z,6.00
2023-03-20T04:21:25.908Z,6.00
2023-03-20T04:23:52.760Z,5.50
2023-03-20T04:26:19.668Z,5.60
2023-03-20T04:28:46.580Z,6.10
2023-03-20T04:33:42.092Z,5.80
2023-03-20T04:36:10.314Z,5.70
2023-03-20T04:38:37.250Z,5.80
2023-03-20T04:41:05.042Z,5.70
2023-03-20T04:48:28.047Z,5.40
2023-03-20T04:50:55.021Z,5.10
2023-03-20T04:58:17.961Z,6.20
2023-03-20T05:05:39.951Z,6.30
2023-03-20T05:08:07.089Z,5.90
2023-03-20T05:17:56.099Z,6.40
2023-03-20T05:22:51.297Z,6.50
2023-03-20T05:25:18.372Z,6.40
2023-03-20T05:27:46.275Z,6.50
2023-03-20T05:30:14.490Z,6.20
2023-03-20T05:37:39.522Z,6.90
2023-03-20T05:40:07.408Z,6.30
2023-03-20T05:49:56.169Z,7.10
2023-03-20T05:52:23.735Z,7.20
2023-03-20T05:57:18.124Z,7.40
2023-03-20T05:59:45.617Z,7.20
2023-03-20T06:04:40.002Z,7.00
2023-03-20T06:12:01.853Z,7.70
2023-03-20T06:21:51.750Z,8.30
2023-03-20T06:29:13.246Z,8.70
2023-03-20T06:31:40.403Z,9.60
2023-03-20T06:34:07.251Z,9.00
2023-03-20T06:41:34.549Z,9.50
2023-03-20T06:48:56.763Z,13.40
2023-03-20T06:56:18.402Z,13.10
2023-03-20T06:58:45.370Z,12.60
2023-03-20T07:01:13.824Z,11.70
2023-03-20T07:03:41.326Z,11.20
2023-03-20T07:06:09.702Z,12.30
2023-03-20T07:16:04.801Z,11.40
2023-03-20T07:18:32.327Z,11.10
2023-03-20T07:21:03.713Z,11.50
2023-03-20T07:25:59.460Z,11.70
2023-03-20T07:30:55.730Z,13.30
2023-03-20T07:33:22.612Z,13.00
2023-03-20T07:35:55.674Z,13.40
2023-03-20T07:38:22.949Z,13.40
2023-03-20T07:40:50.230Z,12.80
2023-03-20T07:45:44.970Z,13.80
2023-03-20T07:53:06.358Z,13.30
2023-03-20T07:55:33.205Z,13.60
2023-03-20T08:05:24.773Z,12.40
2023-03-20T08:10:19.487Z,12.90
2023-03-20T08:12:46.968Z,13.20
2023-03-20T08:15:14.125Z,12.90
2023-03-20T08:17:45.486Z,13.00
2023-03-20T08:20:13.455Z,13.10
2023-03-20T08:22:41.203Z,13.50
2023-03-20T08:25:08.878Z,13.80
2023-03-20T08:27:37.054Z,13.30
2023-03-20T08:30:04.861Z,12.90
2023-03-20T08:32:31.671Z,12.60
2023-03-20T08:37:25.740Z,12.70
2023-03-20T08:42:19.857Z,13.60
2023-03-20T08:47:15.049Z,13.70
2023-03-20T08:49:42.267Z,14.60
2023-03-20T08:57:03.811Z,16.40
2023-03-20T08:59:31.415Z,16.80
2023-03-20T09:01:58.462Z,16.00
2023-03-20T09:04:25.899Z,16.40
2023-03-20T09:06:52.864Z,18.30
2023-03-20T09:14:16.175Z,17.30
2023-03-20T09:16:43.056Z,17.60
2023-03-20T09:19:10.023Z,17.40
2023-03-20T09:21:37.045Z,17.80
2023-03-20T09:24:04.041Z,19.60
2023-03-20T09:33:53.734Z,19.30
2023-03-20T09:36:20.851Z,20.20
2023-03-20T09:41:23.190Z,19.80
2023-03-20T09:44:08.325Z,19.80
2023-03-20T09:46:49.364Z,19.30
2023-03-20T09:49:19.352Z,18.80
2023-03-20T09:51:56.003Z,18.70
2023-03-20T09:54:52.618Z,18.80
2023-03-20T09:57:32.469Z,18.80
2023-03-20T10:00:03.795Z,18.90
2023-03-20T10:02:53.266Z,19.70
2023-03-20T10:05:27.899Z,20.90
2023-03-20T10:08:01.846Z,21.60
2023-03-20T10:10:58.029Z,22.70
2023-03-20T10:13:54.002Z,22.90
2023-03-20T10:16:23.902Z,22.40
2023-03-20T10:19:12.383Z,22.90
2023-03-20T10:21:51.252Z,22.10
2023-03-20T10:24:39.706Z,22.50
2023-03-20T10:27:26.162Z,22.40
2023-03-20T10:30:22.284Z,22.60
2023-03-20T10:33:09.138Z,21.50
2023-03-20T10:35:52.906Z,21.70
2023-03-20T10:38:43.214Z,22.30
2023-03-20T10:41:23.667Z,21.80
2023-03-20T10:43:52.969Z,22.30
2023-03-20T10:46:24.423Z,21.90
2023-03-20T10:49:08.926Z,22.00
2023-03-20T10:52:00.158Z,22.30
2023-03-20T10:54:34.060Z,21.40
2023-03-20T10:57:04.441Z,20.90
2023-03-20T10:59:39.326Z,22.20
2023-03-20T11:02:13.761Z,22.40
2023-03-20T11:07:25.558Z,20.40
2023-03-20T11:10:04.706Z,20.20
2023-03-20T11:12:45.908Z,21.70
2023-03-20T11:15:19.685Z,21.00
2023-03-20T11:18:06.487Z,21.10
2023-03-20T11:20:37.535Z,21.20
2023-03-20T11:23:08.655Z,20.20
2023-03-20T11:25:45.111Z,21.80
2023-03-20T11:28:23.953Z,21.60
2023-03-20T11:33:44.532Z,20.80
2023-03-20T11:36:23.951Z,19.80
2023-03-20T11:38:52.484Z,18.80
2023-03-20T11:41:28.318Z,18.70
2023-03-20T11:46:25.376Z,19.00
2023-03-20T11:49:21.127Z,18.70
2023-03-20T11:54:21.845Z,19.00
2023-03-20T11:56:53.806Z,18.60
2023-03-20T11:59:21.223Z,18.40
2023-03-20T12:01:53.898Z,18.60
2023-03-20T12:04:34.714Z,17.80
2023-03-20T12:07:19.523Z,19.40
2023-03-20T12:09:56.855Z,18.20
2023-03-20T12:12:56.833Z,18.50
2023-03-20T12:15:37.361Z,18.10
2023-03-20T12:18:19.484Z,17.90
2023-03-20T12:21:05.726Z,16.90
2023-03-20T12:24:05.691Z,16.80
2023-03-20T12:26:36.825Z,16.90
2023-03-20T12:29:29.334Z,16.60
2023-03-20T12:32:02.400Z,17.30
2023-03-20T12:34:38.054Z,17.40
2023-03-20T12:37:09.431Z,18.20
2023-03-20T12:39:59.480Z,18.20
2023-03-20T12:42:35.593Z,17.60
2023-03-20T12:45:45.000Z,18.40
2023-03-20T12:48:41.487Z,17.90
2023-03-20T12:51:30.875Z,17.60
2023-03-20T12:54:22.713Z,17.70
2023-03-20T12:57:16.603Z,17.60
2023-03-20T12:59:54.685Z,18.30
2023-03-20T13:02:34.054Z,18.40
2023-03-20T13:05:13.088Z,18.40
2023-03-20T13:07:57.734Z,18.20
2023-03-20T13:10:37.198Z,17.80
2023-03-20T13:13:17.029Z,17.40
2023-03-20T13:16:04.452Z,17.10
2023-03-20T13:18:51.133Z,16.70
2023-03-20T13:21:31.967Z,16.70
2023-03-20T13:24:16.187Z,16.30
2023-03-20T13:26:59.145Z,16.50
2023-03-20T13:29:38.497Z,15.50
2023-03-20T13:32:36.300Z,15.40
2023-03-20T13:35:18.480Z,15.30
2023-03-20T13:37:55.906Z,15.30
2023-03-20T13:40:26.124Z,15.30
2023-03-20T13:43:22.196Z,15.00
2023-03-20T13:45:55.404Z,15.20
2023-03-20T13:48:28.356Z,15.30
2023-03-20T13:51:05.557Z,15.00
2023-03-20T13:54:01.314Z,14.80
2023-03-20T13:56:53.943Z,14.40
2023-03-20T13:59:35.888Z,14.20
2023-03-20T14:02:37.082Z,14.00
2023-03-20T14:05:14.982Z,14.20
2023-03-20T14:07:45.080Z,13.90
2023-03-20T14:10:24.221Z,13.60
2023-03-20T14:12:57.496Z,13.50
2023-03-20T14:15:27.977Z,13.50
2023-03-20T14:20:37.277Z,13.60
2023-03-20T14:23:20.715Z,13.20
2023-03-20T14:25:48.591Z,13.10
2023-03-20T14:30:49.100Z,12.90
2023-03-20T14:35:48.805Z,12.50
2023-03-20T14:38:25.954Z,12.50
2023-03-20T14:43:32.588Z,12.30
2023-03-20T14:46:08.850Z,12.00
2023-03-20T14:48:42.809Z,12.10
2023-03-20T14:51:31.490Z,12.10
2023-03-20T14:54:28.658Z,12.00
2023-03-20T14:56:56.555Z,12.20
2023-03-20T14:59:24.746Z,11.90
2023-03-20T15:01:57.633Z,12.00
2023-03-20T15:04:42.217Z,12.10
2023-03-20T15:09:41.180Z,11.60
2023-03-20T15:12:09.498Z,11.50
2023-03-20T15:15:03.595Z,11.60
2023-03-20T15:17:39.815Z,11.50
2023-03-20T15:20:29.386Z,11.40
2023-03-20T15:22:58.863Z,10.80
2023-03-20T15:25:45.303Z,11.10
2023-03-20T15:28:19.732Z,11.40
2023-03-20T15:30:49.388Z,11.00
2023-03-20T15:33:20.302Z,11.00
2023-03-20T15:35:47.400Z,11.60
2023-03-20T15:38:17.017Z,11.00
2023-03-20T15:43:24.619Z,10.40
2023-03-20T15:46:17.349Z,10.50
2023-03-20T15:48:48.741Z,10.50
2023-03-20T15:51:17.293Z,10.50
2023-03-20T15:53:47.575Z,9.60
2023-03-20T15:56:20.407Z,10.40
2023-03-20T15:58:50.557Z,10.20
2023-03-20T16:01:21.161Z,10.60
2023-03-20T16:03:49.138Z,10.30
2023-03-20T16:06:20.811Z,10.30
2023-03-20T16:08:58.418Z,10.30
2023-03-20T16:13:55.770Z,10.20
2023-03-20T16:16:24.698Z,9.80
2023-03-20T16:21:29.810Z,10.20
2023-03-20T16:23:59.257Z,10.10
2023-03-20T16:26:27.781Z,10.00
2023-03-20T16:28:59.953Z,10.20
2023-03-20T16:31:34.091Z,10.20
2023-03-20T16:34:12.946Z,10.20
2023-03-20T16:41:37.290Z,10.20
2023-03-20T16:44:17.122Z,9.90
2023-03-20T16:47:17.273Z,9.70
2023-03-20T16:49:56.184Z,10.10
2023-03-20T16:52:29.705Z,10.20
2023-03-20T16:54:58.236Z,10.00
2023-03-20T16:57:27.483Z,9.80
2023-03-20T17:00:08.544Z,10.60
2023-03-20T17:02:41.012Z,10.10
2023-03-20T17:05:13.359Z,9.90
2023-03-20T17:07:42.212Z,9.80
2023-03-20T17:10:20.534Z,9.60
2023-03-20T17:12:49.662Z,9.90
2023-03-20T17:15:18.380Z,9.80
2023-03-20T17:17:45.739Z,9.80
2023-03-20T17:20:21.988Z,9.60
2023-03-20T17:22:49.364Z,9.50
2023-03-20T17:25:16.643Z,9.50
2023-03-20T17:27:44.010Z,9.90
2023-03-20T17:30:18.516Z,9.90
2023-03-20T17:37:40.513Z,9.60
2023-03-20T17:40:11.311Z,9.50
2023-03-20T17:42:39.363Z,9.80
2023-03-20T17:52:29.406Z,9.80
2023-03-20T17:54:56.572Z,10.00
2023-03-20T18:02:18.820Z,11.70
2023-03-20T18:04:49.886Z,9.70
2023-03-20T18:07:18.208Z,9.70
2023-03-20T18:12:15.719Z,9.90
2023-03-20T18:17:13.183Z,10.00
2023-03-20T18:19:40.920Z,10.00
2023-03-20T18:24:36.607Z,9.60
2023-03-20T18:27:03.763Z,9.80
2023-03-20T18:39:24.979Z,9.50
2023-03-20T18:41:52.422Z,9.70
2023-03-20T18:44:19.396Z,9.70
2023-03-20T18:49:17.657Z,9.30
2023-03-20T18:51:45.545Z,9.90
2023-03-20T18:56:40.778Z,9.30
2023-03-20T19:01:36.056Z,9.50
2023-03-20T19:04:03.286Z,9.60
2023-03-20T19:06:32.274Z,9.20
2023-03-20T19:09:02.897Z,9.60
2023-03-20T19:11:29.772Z,9.50
2023-03-20T19:13:56.764Z,9.70
2023-03-20T19:16:34.699Z,9.40
2023-03-20T19:19:03.467Z,9.30
2023-03-20T19:21:32.256Z,9.50
2023-03-20T19:24:02.087Z,9.50
2023-03-20T19:26:31.046Z,9.50
2023-03-20T19:29:00.981Z,9.60
2023-03-20T19:36:26.799Z,9.40
2023-03-20T19:38:54.657Z,9.40
2023-03-20T19:41:22.343Z,9.20
2023-03-20T19:51:34.176Z,9.00
2023-03-20T20:01:25.350Z,9.10
2023-03-20T20:03:57.904Z,9.30
2023-03-20T20:06:31.064Z,9.30
2023-03-20T20:16:37.543Z,9.10
2023-03-20T20:19:04.688Z,9.50
2023-03-20T20:27:07.082Z,9.20
2023-03-20T20:29:38.162Z,9.20
2023-03-20T20:32:05.538Z,9.30
2023-03-20T20:38:08.963Z,9.30
2023-03-20T20:40:11.282Z,9.00
2023-03-20T20:45:08.417Z,9.40
2023-03-20T20:50:04.210Z,8.90
2023-03-20T20:52:35.779Z,9.10
2023-03-20T20:55:19.339Z,9.20
2023-03-20T20:57:51.666Z,9.60
2023-03-20T21:05:15.612Z,9.20
2023-03-20T21:07:44.572Z,8.70
2023-03-20T21:10:13.271Z,9.00
2023-03-20T21:15:25.880Z,9.00
2023-03-20T21:18:00.581Z,9.10
2023-03-20T21:20:29.602Z,9.00
2023-03-20T21:40:43.887Z,9.00
2023-03-20T21:43:11.233Z,8.60
2023-03-20T21:46:21.073Z,8.70
2023-03-20T22:25:18.476Z,8.80
2023-03-20T22:31:03.425Z,8.70
2023-03-20T22:33:46.983Z,7.90
2023-03-20T22:36:28.043Z,8.60
2023-03-20T22:42:06.869Z,8.90
2023-03-20T22:49:23.120Z,8.60
2023-03-20T22:52:11.151Z,8.50
2023-03-20T22:57:06.191Z,8.70
2023-03-20T22:59:33.089Z,9.10
2023-03-20T23:04:29.889Z,9.00
2023-03-20T23:09:24.651Z,8.80
2023-03-20T23:11:51.465Z,8.20
2023-03-20T23:14:21.731Z,8.60
2023-03-20T23:19:16.974Z,8.80
2023-03-20T23:26:38.861Z,8.80
2023-03-20T23:29:05.857Z,8.70
2023-03-20T23:31:32.832Z,8.50
2023-03-20T23:33:59.709Z,8.60
2023-03-20T23:36:42.709Z,8.40
2023-03-20T23:39:13.009Z,8.50
2023-03-20T23:44:28.388Z,8.80
2023-03-20T23:49:23.006Z,8.60
2023-03-20T23:54:17.212Z,8.60
2023-03-20T23:56:44.069Z,8.90
